METAR for South England South Wales and Channel Islands - 23 Oct 2017 - 0948 UTC - RocketRoute WX - rrwx.com
EGJA 230920Z 23018KT 1800 RADZ BR OVC001 14/// Q1019 EGUB 230933Z 18010KT 9999 BKN006 13/12 Q1016 YLO1 TEMPO SCT010 GRN EGKB 230920Z 20012KT 7000 3500SE BKN005 13/12 Q1018 EGDM 230928Z 21009KT 9999 BKN004 OVC010 14/13 Q1016 YLO2 TEMPO BKN005 YLO1 EGHH 230920Z 23011KT 3000 -RA BR BKN004 15/14 Q1017 EGGD 230920Z AUTO 21007KT 9999 BKN004 BKN009 OVC013 13/13 Q1016 EGVN 230850Z 21005KT 9999 OVC008 13/12 Q1016 TEMPO 6000 -RADZ SCT006 EGFF 230920Z AUTO 25006KT 9999 OVC012 15/14 Q1015 EGTC 230920Z 21013KT 9999 BKN011 BKN032 13/12 Q1016 EGDR 230850Z 23014KT 0150 -DZ BKN000 OVC001 14/14 Q1016 RED NOSIG EGTE 230920Z 20005KT 9999 FEW007 SCT020 15/14 Q1016 EGLF 230920Z 20009KT 5000 -RADZ BKN005 13/13 Q1017 EGTG   EGBJ 230920Z 21006KT 9999 SCT009 BKN010 15/13 Q1015 EGJB 230920Z 22018KT 2000 -RADZ VCFG FEW000 BKN001 14/14 Q1019 EGJJ 230920Z 21014KT 3500 -DZ BR FEW002 BKN003 14/14 Q1020 EGGW 230920Z AUTO 19006KT 160V220 9000 OVC004 11/10 Q1017 EGLC 230920Z AUTO 22007KT 190V290 9999 BKN013 BKN036 OVC048 14/11 Q1018 EGKK 230920Z 21006KT 6000 -DZRA BKN005 14/13 Q1018 REDZ EGLL 230920Z AUTO 20008KT 160V250 9999 BKN007 OVC025 13/12 Q1017 TEMPO 4000 -RADZ EGSS 230920Z AUTO 20007KT 9999 BKN010 OVC023 12/10 Q1018 EGMD 230920Z 23011KT 9999 FEW015 BKN023 BKN037 14/13 Q1019 EGDL   EGMH   EGVP 230909Z 20009KT 7000 -DZ FEW005 BKN006 OVC013 14/13 Q1017 YLO1 TEMPO 9999 NSW BKN007 GRN EGHQ 230920Z 23015KT 0400 R30/0800 -RADZ FG BKN001 14/13 Q1016 EGWU 230850Z 18005KT 6000 -DZ BKN008 13/11 Q1017 TEMPO 9999 NSW EGHK   EGHE 230920Z 24016KT 4000 -DZ BKN003 14/14 Q1017 EGKA 230920Z 23011KT 2500 -RADZ BKN004 14/13 Q1018 EGHI 230920Z 20008KT 170V230 6000 -RADZ BKN005 14/13 Q1017 EGMC 230920Z 20006KT 9999 FEW023 BKN035 12/09 Q1018 EGDX 230850Z 25008KT 9999 SCT013 BKN016 15/14 Q1015 GRN EGDY 230850Z AUTO 19009KT 9999 SCT009/// BKN019/// BKN046/// 15/14 Q1016

RocketRoute WX - rrwx.com weather for pilots